Brookville, Kansas
Current Conditions -  °F | °C
As of 8:53 AM on Sunday 23 Nov 2014 (Local Time) from KSLN Reporting Station
Light Rain Light Rain  
Wind Chill: 53°   Ceiling: 1700
Heat Index: 53°   Visibility: 1.7mi
Dew Point: 51°   Wind: 0mph
Humidity: 93%   Direction: NA
Pressure: 29.48"   Gusts: NA
Location:  38.78°N, 97.87°W
Report Text: KSLN 231453Z 00000KT 1 3/4SM -RA BR FEW002 BKN017 OVC036 12/11 A2948 RMK AO2 RAB40 SLP978 P0001 60004 T01170106 58001
Loading
Personal Weather Stations






























Interactive Weather Map New forecast layout! Learn more

10-Day Weather Forecast

Advertisements
Track Severe Weather on mobile